sensor_id;sensor_type;location;lat;lon;timestamp;pressure;altitude;pressure_sealevel;temperature;humidity
46464;BME280;32161;48.148;-1.554;2022-11-20T00:01:06;100926.25;;;6.34;94.48
46464;BME280;32161;48.148;-1.554;2022-11-20T00:03:34;100920.28;;;6.39;94.45
46464;BME280;32161;48.148;-1.554;2022-11-20T00:06:03;100920.28;;;6.39;93.98
46464;BME280;32161;48.148;-1.554;2022-11-20T00:08:31;100917.81;;;6.44;93.82
46464;BME280;32161;48.148;-1.554;2022-11-20T00:11:03;100918.66;;;6.44;94.23
46464;BME280;32161;48.148;-1.554;2022-11-20T00:13:31;100925.91;;;6.44;94.54
46464;BME280;32161;48.148;-1.554;2022-11-20T00:16:01;100920.97;;;6.47;94.64
46464;BME280;32161;48.148;-1.554;2022-11-20T00:18:32;100922.44;;;6.50;94.84
46464;BME280;32161;48.148;-1.554;2022-11-20T00:21:03;100916.63;;;6.53;94.84
46464;BME280;32161;48.148;-1.554;2022-11-20T00:23:31;100909.16;;;6.55;95.01
46464;BME280;32161;48.148;-1.554;2022-11-20T00:26:03;100912.06;;;6.53;94.84
46464;BME280;32161;48.148;-1.554;2022-11-20T00:28:31;100910.00;;;6.55;95.38
46464;BME280;32161;48.148;-1.554;2022-11-20T00:31:03;100910.81;;;6.56;95.22
46464;BME280;32161;48.148;-1.554;2022-11-20T00:33:32;100910.44;;;6.59;95.16
46464;BME280;32161;48.148;-1.554;2022-11-20T00:36:01;100909.19;;;6.62;95.70
46464;BME280;32161;48.148;-1.554;2022-11-20T00:38:30;100907.72;;;6.59;95.52
46464;BME280;32161;48.148;-1.554;2022-11-20T00:40:58;100917.47;;;6.60;95.53
46464;BME280;32161;48.148;-1.554;2022-11-20T00:43:26;100909.00;;;6.63;95.35
46464;BME280;32161;48.148;-1.554;2022-11-20T00:45:57;100911.28;;;6.66;95.14
46464;BME280;32161;48.148;-1.554;2022-11-20T00:48:25;100904.03;;;6.67;95.77
46464;BME280;32161;48.148;-1.554;2022-11-20T00:50:55;100910.69;;;6.71;94.93
46464;BME280;32161;48.148;-1.554;2022-11-20T00:53:23;100899.09;;;6.77;95.73
46464;BME280;32161;48.148;-1.554;2022-11-20T00:55:56;100891.59;;;6.79;95.35
46464;BME280;32161;48.148;-1.554;2022-11-20T00:58:28;100887.25;;;6.78;95.33
46464;BME280;32161;48.148;-1.554;2022-11-20T01:01:00;100892.03;;;6.82;95.04
46464;BME280;32161;48.148;-1.554;2022-11-20T01:03:31;100887.06;;;6.86;94.92
46464;BME280;32161;48.148;-1.554;2022-11-20T01:06:06;100883.97;;;6.89;95.85
46464;BME280;32161;48.148;-1.554;2022-11-20T01:08:36;100884.38;;;6.93;94.89
46464;BME280;32161;48.148;-1.554;2022-11-20T01:11:07;100875.66;;;6.97;94.49
46464;BME280;32161;48.148;-1.554;2022-11-20T01:13:35;100872.31;;;6.95;94.85
46464;BME280;32161;48.148;-1.554;2022-11-20T01:16:09;100870.25;;;6.97;95.70
46464;BME280;32161;48.148;-1.554;2022-11-20T01:18:39;100860.50;;;6.96;95.94
46464;BME280;32161;48.148;-1.554;2022-11-20T01:21:11;100870.25;;;6.97;96.50
46464;BME280;32161;48.148;-1.554;2022-11-20T01:23:41;100875.03;;;6.95;96.79
46464;BME280;32161;48.148;-1.554;2022-11-20T01:26:12;100871.09;;;6.98;97.49
46464;BME280;32161;48.148;-1.554;2022-11-20T01:28:41;100862.78;;;6.99;97.29
46464;BME280;32161;48.148;-1.554;2022-11-20T01:31:14;100848.84;;;7.02;97.23
46464;BME280;32161;48.148;-1.554;2022-11-20T01:33:43;100855.13;;;7.09;97.26
46464;BME280;32161;48.148;-1.554;2022-11-20T01:36:14;100853.66;;;7.14;97.38
46464;BME280;32161;48.148;-1.554;2022-11-20T01:38:42;100850.75;;;7.22;98.24
46464;BME280;32161;48.148;-1.554;2022-11-20T01:41:12;100842.88;;;7.20;98.55
46464;BME280;32161;48.148;-1.554;2022-11-20T01:44:01;100840.19;;;7.27;98.54
46464;BME280;32161;48.148;-1.554;2022-11-20T01:46:29;100842.44;;;7.30;99.24
46464;BME280;32161;48.148;-1.554;2022-11-20T01:49:00;100841.22;;;7.39;99.08
46464;BME280;32161;48.148;-1.554;2022-11-20T01:51:35;100837.47;;;7.40;99.13
46464;BME280;32161;48.148;-1.554;2022-11-20T01:54:09;100838.31;;;7.41;99.29
46464;BME280;32161;48.148;-1.554;2022-11-20T01:56:40;100834.16;;;7.38;100.00
46464;BME280;32161;48.148;-1.554;2022-11-20T01:59:12;100825.22;;;7.44;100.00
46464;BME280;32161;48.148;-1.554;2022-11-20T02:01:40;100824.56;;;7.49;100.00
46464;BME280;32161;48.148;-1.554;2022-11-20T02:04:09;100813.75;;;7.49;100.00
46464;BME280;32161;48.148;-1.554;2022-11-20T02:06:43;100817.72;;;7.53;100.00
46464;BME280;32161;48.148;-1.554;2022-11-20T02:09:13;100821.06;;;7.55;100.00
46464;BME280;32161;48.148;-1.554;2022-11-20T02:11:41;100813.13;;;7.67;100.00
46464;BME280;32161;48.148;-1.554;2022-11-20T02:14:10;100810.03;;;7.70;100.00
46464;BME280;32161;48.148;-1.554;2022-11-20T02:16:40;100800.44;;;7.80;100.00
46464;BME280;32161;48.148;-1.554;2022-11-20T02:19:22;100795.03;;;7.74;100.00
46464;BME280;32161;48.148;-1.554;2022-11-20T02:22:00;100797.09;;;7.72;100.00
46464;BME280;32161;48.148;-1.554;2022-11-20T02:24:30;100787.31;;;7.77;100.00
46464;BME280;32161;48.148;-1.554;2022-11-20T02:27:01;100789.16;;;7.97;100.00
46464;BME280;32161;48.148;-1.554;2022-11-20T02:29:35;100778.53;;;7.95;100.00
46464;BME280;32161;48.148;-1.554;2022-11-20T02:32:05;100774.16;;;7.94;100.00
46464;BME280;32161;48.148;-1.554;2022-11-20T02:34:32;100775.38;;;8.12;100.00
46464;BME280;32161;48.148;-1.554;2022-11-20T02:37:00;100775.31;;;8.18;100.00
46464;BME280;32161;48.148;-1.554;2022-11-20T02:39:30;100770.56;;;8.14;100.00
46464;BME280;32161;48.148;-1.554;2022-11-20T02:41:57;100759.56;;;8.08;100.00
46464;BME280;32161;48.148;-1.554;2022-11-20T02:44:28;100765.38;;;8.05;100.00
46464;BME280;32161;48.148;-1.554;2022-11-20T02:46:57;100764.13;;;8.08;100.00
46464;BME280;32161;48.148;-1.554;2022-11-20T02:49:25;100755.38;;;8.13;100.00
46464;BME280;32161;48.148;-1.554;2022-11-20T02:51:53;100749.31;;;8.17;100.00
46464;BME280;32161;48.148;-1.554;2022-11-20T02:54:20;100747.66;;;8.16;100.00
46464;BME280;32161;48.148;-1.554;2022-11-20T02:56:49;100745.13;;;8.15;100.00
46464;BME280;32161;48.148;-1.554;2022-11-20T02:59:17;100746.59;;;8.17;100.00
46464;BME280;32161;48.148;-1.554;2022-11-20T03:01:44;100743.88;;;8.24;100.00
46464;BME280;32161;48.148;-1.554;2022-11-20T03:04:12;100736.16;;;8.27;100.00
46464;BME280;32161;48.148;-1.554;2022-11-20T03:06:39;100730.91;;;8.39;100.00
46464;BME280;32161;48.148;-1.554;2022-11-20T03:09:07;100722.38;;;8.36;100.00
46464;BME280;32161;48.148;-1.554;2022-11-20T03:11:35;100712.56;;;8.41;100.00
46464;BME280;32161;48.148;-1.554;2022-11-20T03:14:05;100717.38;;;8.32;100.00
46464;BME280;32161;48.148;-1.554;2022-11-20T03:16:33;100713.22;;;8.30;100.00
46464;BME280;32161;48.148;-1.554;2022-11-20T03:19:00;100704.22;;;8.36;100.00
46464;BME280;32161;48.148;-1.554;2022-11-20T03:21:28;100686.75;;;8.32;100.00
46464;BME280;32161;48.148;-1.554;2022-11-20T03:23:56;100694.88;;;8.39;100.00
46464;BME280;32161;48.148;-1.554;2022-11-20T03:26:25;100681.50;;;8.44;100.00
46464;BME280;32161;48.148;-1.554;2022-11-20T03:28:55;100669.94;;;8.23;100.00
46464;BME280;32161;48.148;-1.554;2022-11-20T03:31:27;100665.53;;;8.22;100.00
46464;BME280;32161;48.148;-1.554;2022-11-20T03:33:56;100661.22;;;8.15;100.00
46464;BME280;32161;48.148;-1.554;2022-11-20T03:36:25;100649.94;;;8.24;100.00
46464;BME280;32161;48.148;-1.554;2022-11-20T03:38:54;100641.84;;;8.18;100.00
46464;BME280;32161;48.148;-1.554;2022-11-20T03:41:25;100640.44;;;8.08;100.00
46464;BME280;32161;48.148;-1.554;2022-11-20T03:43:55;100635.41;;;8.19;100.00
46464;BME280;32161;48.148;-1.554;2022-11-20T03:46:25;100624.34;;;8.20;100.00
46464;BME280;32161;48.148;-1.554;2022-11-20T03:48:54;100620.41;;;8.16;100.00
46464;BME280;32161;48.148;-1.554;2022-11-20T03:51:23;100617.19;;;8.26;100.00
46464;BME280;32161;48.148;-1.554;2022-11-20T03:53:53;100620.06;;;7.99;100.00
46464;BME280;32161;48.148;-1.554;2022-11-20T03:56:24;100621.47;;;8.15;100.00
46464;BME280;32161;48.148;-1.554;2022-11-20T03:58:52;100615.50;;;8.38;100.00
46464;BME280;32161;48.148;-1.554;2022-11-20T04:01:24;100619.69;;;8.34;100.00
46464;BME280;32161;48.148;-1.554;2022-11-20T04:03:54;100627.00;;;8.27;100.00
46464;BME280;32161;48.148;-1.554;2022-11-20T04:06:24;100619.47;;;8.29;100.00
46464;BME280;32161;48.148;-1.554;2022-11-20T04:08:53;100618.53;;;8.48;100.00
46464;BME280;32161;48.148;-1.554;2022-11-20T04:11:23;100611.91;;;8.44;100.00
46464;BME280;32161;48.148;-1.554;2022-11-20T04:13:53;100616.28;;;8.45;100.00
46464;BME280;32161;48.148;-1.554;2022-11-20T04:16:22;100612.53;;;8.46;100.00
46464;BME280;32161;48.148;-1.554;2022-11-20T04:18:54;100613.09;;;8.55;100.00
46464;BME280;32161;48.148;-1.554;2022-11-20T04:21:22;100610.41;;;8.48;100.00
46464;BME280;32161;48.148;-1.554;2022-11-20T04:23:51;100603.50;;;8.52;100.00
46464;BME280;32161;48.148;-1.554;2022-11-20T04:26:21;100611.72;;;8.71;100.00
46464;BME280;32161;48.148;-1.554;2022-11-20T04:28:49;100607.13;;;8.71;100.00
46464;BME280;32161;48.148;-1.554;2022-11-20T04:31:19;100614.66;;;8.69;100.00
46464;BME280;32161;48.148;-1.554;2022-11-20T04:33:47;100610.66;;;8.47;100.00
46464;BME280;32161;48.148;-1.554;2022-11-20T04:36:18;100611.25;;;8.49;100.00
46464;BME280;32161;48.148;-1.554;2022-11-20T04:38:49;100618.13;;;8.51;100.00
46464;BME280;32161;48.148;-1.554;2022-11-20T04:41:19;100610.78;;;8.59;100.00
46464;BME280;32161;48.148;-1.554;2022-11-20T04:43:48;100601.38;;;8.61;100.00
46464;BME280;32161;48.148;-1.554;2022-11-20T04:46:16;100604.84;;;8.68;100.00
46464;BME280;32161;48.148;-1.554;2022-11-20T04:48:44;100591.25;;;8.75;100.00
46464;BME280;32161;48.148;-1.554;2022-11-20T04:51:12;100589.47;;;8.87;100.00
46464;BME280;32161;48.148;-1.554;2022-11-20T04:53:41;100579.19;;;8.71;100.00
46464;BME280;32161;48.148;-1.554;2022-11-20T04:56:11;100576.03;;;8.74;100.00
46464;BME280;32161;48.148;-1.554;2022-11-20T04:58:40;100579.56;;;8.74;100.00
46464;BME280;32161;48.148;-1.554;2022-11-20T05:01:11;100570.91;;;8.66;100.00
46464;BME280;32161;48.148;-1.554;2022-11-20T05:03:39;100565.19;;;8.74;100.00
46464;BME280;32161;48.148;-1.554;2022-11-20T05:06:08;100558.19;;;8.66;100.00
46464;BME280;32161;48.148;-1.554;2022-11-20T05:08:36;100561.94;;;8.65;100.00
46464;BME280;32161;48.148;-1.554;2022-11-20T05:11:08;100568.34;;;8.71;100.00
46464;BME280;32161;48.148;-1.554;2022-11-20T05:13:36;100553.34;;;8.68;100.00
46464;BME280;32161;48.148;-1.554;2022-11-20T05:16:06;100560.38;;;8.76;100.00
46464;BME280;32161;48.148;-1.554;2022-11-20T05:18:34;100556.31;;;8.67;100.00
46464;BME280;32161;48.148;-1.554;2022-11-20T05:21:02;100561.66;;;8.73;100.00
46464;BME280;32161;48.148;-1.554;2022-11-20T05:23:31;100561.22;;;8.76;100.00
46464;BME280;32161;48.148;-1.554;2022-11-20T05:25:59;100551.50;;;8.87;100.00
46464;BME280;32161;48.148;-1.554;2022-11-20T05:28:30;100547.53;;;8.90;100.00
46464;BME280;32161;48.148;-1.554;2022-11-20T05:31:05;100538.19;;;8.86;100.00
46464;BME280;32161;48.148;-1.554;2022-11-20T05:33:33;100537.81;;;8.82;100.00
46464;BME280;32161;48.148;-1.554;2022-11-20T05:36:02;100536.53;;;8.85;100.00
46464;BME280;32161;48.148;-1.554;2022-11-20T05:38:30;100531.88;;;8.92;100.00
46464;BME280;32161;48.148;-1.554;2022-11-20T05:41:05;100519.81;;;9.06;100.00
46464;BME280;32161;48.148;-1.554;2022-11-20T05:43:34;100515.84;;;9.09;100.00
46464;BME280;32161;48.148;-1.554;2022-11-20T05:46:03;100514.19;;;9.08;100.00
46464;BME280;32161;48.148;-1.554;2022-11-20T05:48:32;100514.19;;;9.08;100.00
46464;BME280;32161;48.148;-1.554;2022-11-20T05:51:03;100521.28;;;9.09;100.00
46464;BME280;32161;48.148;-1.554;2022-11-20T05:53:32;100526.81;;;8.95;100.00
46464;BME280;32161;48.148;-1.554;2022-11-20T05:56:02;100519.69;;;9.01;100.00
46464;BME280;32161;48.148;-1.554;2022-11-20T05:58:31;100524.81;;;9.09;100.00
46464;BME280;32161;48.148;-1.554;2022-11-20T06:01:07;100534.16;;;9.13;100.00
46464;BME280;32161;48.148;-1.554;2022-11-20T06:03:35;100535.88;;;9.08;100.00
46464;BME280;32161;48.148;-1.554;2022-11-20T06:06:04;100535.88;;;9.08;100.00
46464;BME280;32161;48.148;-1.554;2022-11-20T06:08:32;100551.78;;;9.04;100.00
46464;BME280;32161;48.148;-1.554;2022-11-20T06:11:04;100588.28;;;9.01;100.00
46464;BME280;32161;48.148;-1.554;2022-11-20T06:13:32;100651.09;;;8.98;100.00
46464;BME280;32161;48.148;-1.554;2022-11-20T06:15:59;100656.66;;;8.78;100.00
46464;BME280;32161;48.148;-1.554;2022-11-20T06:18:29;100651.88;;;8.80;100.00
46464;BME280;32161;48.148;-1.554;2022-11-20T06:21:02;100654.03;;;8.97;100.00
46464;BME280;32161;48.148;-1.554;2022-11-20T06:23:31;100633.69;;;9.06;100.00
46464;BME280;32161;48.148;-1.554;2022-11-20T06:26:02;100634.66;;;8.93;100.00
46464;BME280;32161;48.148;-1.554;2022-11-20T06:28:30;100635.25;;;8.95;100.00
46464;BME280;32161;48.148;-1.554;2022-11-20T06:30:59;100636.31;;;8.94;100.00
46464;BME280;32161;48.148;-1.554;2022-11-20T06:33:29;100637.53;;;8.98;100.00
46464;BME280;32161;48.148;-1.554;2022-11-20T06:35:57;100636.03;;;9.02;100.00
46464;BME280;32161;48.148;-1.554;2022-11-20T06:38:26;100629.28;;;9.12;100.00
46464;BME280;32161;48.148;-1.554;2022-11-20T06:40:54;100643.13;;;9.22;100.00
46464;BME280;32161;48.148;-1.554;2022-11-20T06:43:22;100649.19;;;9.24;100.00
46464;BME280;32161;48.148;-1.554;2022-11-20T06:45:52;100640.59;;;9.27;100.00
46464;BME280;32161;48.148;-1.554;2022-11-20T06:48:20;100619.72;;;9.27;100.00
46464;BME280;32161;48.148;-1.554;2022-11-20T06:50:49;100601.13;;;9.31;100.00
46464;BME280;32161;48.148;-1.554;2022-11-20T06:53:17;100600.31;;;9.31;100.00
46464;BME280;32161;48.148;-1.554;2022-11-20T06:55:45;100594.63;;;9.32;100.00
46464;BME280;32161;48.148;-1.554;2022-11-20T06:58:14;100601.13;;;9.31;100.00
46464;BME280;32161;48.148;-1.554;2022-11-20T07:00:43;100606.56;;;9.31;100.00
46464;BME280;32161;48.148;-1.554;2022-11-20T07:03:14;100613.63;;;9.32;100.00
46464;BME280;32161;48.148;-1.554;2022-11-20T07:05:41;100615.06;;;9.35;100.00
46464;BME280;32161;48.148;-1.554;2022-11-20T07:08:11;100618.16;;;9.38;100.00
46464;BME280;32161;48.148;-1.554;2022-11-20T07:10:39;100609.41;;;9.36;100.00
46464;BME280;32161;48.148;-1.554;2022-11-20T07:13:06;100614.59;;;9.38;100.00
46464;BME280;32161;48.148;-1.554;2022-11-20T07:15:34;100617.94;;;9.40;100.00
46464;BME280;32161;48.148;-1.554;2022-11-20T07:18:02;100605.56;;;9.44;100.00
46464;BME280;32161;48.148;-1.554;2022-11-20T07:20:29;100595.53;;;9.44;100.00
46464;BME280;32161;48.148;-1.554;2022-11-20T07:22:59;100591.03;;;9.38;100.00
46464;BME280;32161;48.148;-1.554;2022-11-20T07:25:28;100597.72;;;9.36;100.00
46464;BME280;32161;48.148;-1.554;2022-11-20T07:27:57;100601.13;;;9.31;100.00
46464;BME280;32161;48.148;-1.554;2022-11-20T07:30:25;100599.00;;;9.33;100.00
46464;BME280;32161;48.148;-1.554;2022-11-20T07:32:55;100600.88;;;9.33;100.00
46464;BME280;32161;48.148;-1.554;2022-11-20T07:35:23;100611.53;;;9.34;100.00
46464;BME280;32161;48.148;-1.554;2022-11-20T07:37:51;100605.88;;;9.36;100.00
46464;BME280;32161;48.148;-1.554;2022-11-20T07:40:19;100597.97;;;9.34;100.00
46464;BME280;32161;48.148;-1.554;2022-11-20T07:42:52;100593.38;;;9.35;100.00
46464;BME280;32161;48.148;-1.554;2022-11-20T07:45:22;100598.56;;;9.36;100.00
46464;BME280;32161;48.148;-1.554;2022-11-20T07:47:51;100600.44;;;9.36;100.00
46464;BME280;32161;48.148;-1.554;2022-11-20T07:50:19;100599.63;;;9.35;100.00
46464;BME280;32161;48.148;-1.554;2022-11-20T07:52:47;100595.25;;;9.34;100.00
46464;BME280;32161;48.148;-1.554;2022-11-20T07:55:15;100599.63;;;9.35;100.00
46464;BME280;32161;48.148;-1.554;2022-11-20T07:57:42;100607.53;;;9.37;100.00
46464;BME280;32161;48.148;-1.554;2022-11-20T08:00:13;100615.22;;;9.40;100.00
46464;BME280;32161;48.148;-1.554;2022-11-20T08:02:41;100632.94;;;9.42;100.00
46464;BME280;32161;48.148;-1.554;2022-11-20T08:05:10;100627.28;;;9.44;100.00
46464;BME280;32161;48.148;-1.554;2022-11-20T08:07:38;100627.72;;;9.41;100.00
46464;BME280;32161;48.148;-1.554;2022-11-20T08:10:08;100634.81;;;9.42;100.00
46464;BME280;32161;48.148;-1.554;2022-11-20T08:12:42;100630.66;;;9.39;100.00
46464;BME280;32161;48.148;-1.554;2022-11-20T08:15:30;100640.06;;;9.37;100.00
46464;BME280;32161;48.148;-1.554;2022-11-20T08:18:03;100652.22;;;9.34;100.00
46464;BME280;32161;48.148;-1.554;2022-11-20T08:20:31;100660.56;;;9.33;100.00
46464;BME280;32161;48.148;-1.554;2022-11-20T08:23:00;100655.81;;;9.28;100.00
46464;BME280;32161;48.148;-1.554;2022-11-20T08:25:28;100661.69;;;9.25;100.00
46464;BME280;32161;48.148;-1.554;2022-11-20T08:27:58;100658.19;;;9.18;100.00
46464;BME280;32161;48.148;-1.554;2022-11-20T08:30:26;100677.66;;;9.15;100.00
46464;BME280;32161;48.148;-1.554;2022-11-20T08:33:02;100678.09;;;9.12;100.00
46464;BME280;32161;48.148;-1.554;2022-11-20T08:35:33;100672.66;;;9.12;100.00
46464;BME280;32161;48.148;-1.554;2022-11-20T08:38:02;100679.13;;;9.11;100.00
46464;BME280;32161;48.148;-1.554;2022-11-20T08:40:29;100670.97;;;9.11;100.00
46464;BME280;32161;48.148;-1.554;2022-11-20T08:42:57;100664.53;;;9.12;100.00
46464;BME280;32161;48.148;-1.554;2022-11-20T08:45:25;100658.88;;;9.13;100.00
46464;BME280;32161;48.148;-1.554;2022-11-20T08:47:59;100666.81;;;9.15;100.00
46464;BME280;32161;48.148;-1.554;2022-11-20T08:50:27;100661.38;;;9.15;100.00
46464;BME280;32161;48.148;-1.554;2022-11-20T08:52:55;100671.16;;;9.16;100.00
46464;BME280;32161;48.148;-1.554;2022-11-20T08:55:22;100682.59;;;9.18;100.00
46464;BME280;32161;48.148;-1.554;2022-11-20T08:57:50;100684.88;;;9.21;100.00
46464;BME280;32161;48.148;-1.554;2022-11-20T09:00:18;100702.81;;;9.22;100.00
46464;BME280;32161;48.148;-1.554;2022-11-20T09:02:46;100706.13;;;9.24;100.00
46464;BME280;32161;48.148;-1.554;2022-11-20T09:05:15;100712.38;;;9.24;100.00
46464;BME280;32161;48.148;-1.554;2022-11-20T09:07:42;100707.78;;;9.25;100.00
46464;BME280;32161;48.148;-1.554;2022-11-20T09:10:10;100716.94;;;9.31;100.00
46464;BME280;32161;48.148;-1.554;2022-11-20T09:12:38;100714.00;;;9.32;100.00
46464;BME280;32161;48.148;-1.554;2022-11-20T09:15:06;100715.50;;;9.28;100.00
46464;BME280;32161;48.148;-1.554;2022-11-20T09:17:34;100731.31;;;9.31;100.00
46464;BME280;32161;48.148;-1.554;2022-11-20T09:20:02;100740.13;;;9.26;100.00
46464;BME280;32161;48.148;-1.554;2022-11-20T09:22:31;100742.84;;;9.26;100.00
46464;BME280;32161;48.148;-1.554;2022-11-20T09:24:59;100753.81;;;9.38;100.00
46464;BME280;32161;48.148;-1.554;2022-11-20T09:27:26;100755.91;;;9.36;100.00
46464;BME280;32161;48.148;-1.554;2022-11-20T09:29:54;100752.22;;;9.49;100.00
46464;BME280;32161;48.148;-1.554;2022-11-20T09:32:21;100764.41;;;9.65;100.00
46464;BME280;32161;48.148;-1.554;2022-11-20T09:34:49;100788.06;;;9.58;100.00
46464;BME280;32161;48.148;-1.554;2022-11-20T09:37:17;100779.09;;;9.57;100.00
46464;BME280;32161;48.148;-1.554;2022-11-20T09:39:46;100784.53;;;9.75;100.00
46464;BME280;32161;48.148;-1.554;2022-11-20T09:42:32;100781.31;;;9.85;100.00
46464;BME280;32161;48.148;-1.554;2022-11-20T09:45:16;100780.78;;;9.95;100.00
46464;BME280;32161;48.148;-1.554;2022-11-20T09:48:01;100775.59;;;9.93;100.00
46464;BME280;32161;48.148;-1.554;2022-11-20T09:50:35;100795.19;;;9.95;100.00
46464;BME280;32161;48.148;-1.554;2022-11-20T09:53:16;100794.16;;;9.96;100.00
46464;BME280;32161;48.148;-1.554;2022-11-20T09:55:49;100785.41;;;10.13;100.00
46464;BME280;32161;48.148;-1.554;2022-11-20T09:58:27;100777.41;;;10.18;100.00
46464;BME280;32161;48.148;-1.554;2022-11-20T10:01:04;100792.59;;;10.25;100.00
46464;BME280;32161;48.148;-1.554;2022-11-20T10:03:42;100801.41;;;10.21;100.00
46464;BME280;32161;48.148;-1.554;2022-11-20T10:06:16;100796.00;;;10.39;100.00
46464;BME280;32161;48.148;-1.554;2022-11-20T10:08:51;100804.22;;;10.33;100.00
46464;BME280;32161;48.148;-1.554;2022-11-20T10:11:32;100800.53;;;10.45;100.00
46464;BME280;32161;48.148;-1.554;2022-11-20T10:14:16;100802.25;;;10.58;100.00
46464;BME280;32161;48.148;-1.554;2022-11-20T10:16:56;100808.97;;;10.56;100.00
46464;BME280;32161;48.148;-1.554;2022-11-20T10:19:45;100813.94;;;10.59;100.00
46464;BME280;32161;48.148;-1.554;2022-11-20T10:22:30;100818.47;;;10.65;100.00
46464;BME280;32161;48.148;-1.554;2022-11-20T10:25:08;100822.53;;;10.56;100.00
46464;BME280;32161;48.148;-1.554;2022-11-20T10:28:11;100818.75;;;10.75;100.00
46464;BME280;32161;48.148;-1.554;2022-11-20T10:30:44;100821.38;;;10.82;100.00
46464;BME280;32161;48.148;-1.554;2022-11-20T10:33:17;100838.13;;;10.97;100.00
46464;BME280;32161;48.148;-1.554;2022-11-20T10:35:52;100831.03;;;10.96;100.00
46464;BME280;32161;48.148;-1.554;2022-11-20T10:38:27;100828.56;;;11.06;100.00
46464;BME280;32161;48.148;-1.554;2022-11-20T10:41:01;100832.38;;;11.17;100.00
46464;BME280;32161;48.148;-1.554;2022-11-20T10:43:45;100840.44;;;11.23;100.00
46464;BME280;32161;48.148;-1.554;2022-11-20T10:46:17;100832.84;;;11.14;100.00
46464;BME280;32161;48.148;-1.554;2022-11-20T10:48:46;100822.78;;;11.14;100.00
46464;BME280;32161;48.148;-1.554;2022-11-20T10:51:26;100815.53;;;11.50;99.18
46464;BME280;32161;48.148;-1.554;2022-11-20T10:54:11;100811.63;;;11.46;97.79
46464;BME280;32161;48.148;-1.554;2022-11-20T10:56:45;100815.53;;;11.50;97.46
46464;BME280;32161;48.148;-1.554;2022-11-20T10:59:38;100822.53;;;11.58;98.03
46464;BME280;32161;48.148;-1.554;2022-11-20T11:02:18;100825.00;;;11.47;98.96
46464;BME280;32161;48.148;-1.554;2022-11-20T11:04:47;100831.88;;;11.50;99.41
46464;BME280;32161;48.148;-1.554;2022-11-20T11:07:20;100848.13;;;11.68;99.85
46464;BME280;32161;48.148;-1.554;2022-11-20T11:09:53;100850.13;;;11.73;98.74
46464;BME280;32161;48.148;-1.554;2022-11-20T11:12:22;100843.50;;;11.69;99.36
46464;BME280;32161;48.148;-1.554;2022-11-20T11:14:54;100841.59;;;11.58;99.72
46464;BME280;32161;48.148;-1.554;2022-11-20T11:17:27;100839.38;;;11.78;98.54
46464;BME280;32161;48.148;-1.554;2022-11-20T11:20:06;100837.00;;;11.82;98.48
46464;BME280;32161;48.148;-1.554;2022-11-20T11:22:46;100841.88;;;11.91;98.66
46464;BME280;32161;48.148;-1.554;2022-11-20T11:25:25;100836.19;;;12.05;97.63
46464;BME280;32161;48.148;-1.554;2022-11-20T11:27:56;100840.69;;;11.87;98.72
46464;BME280;32161;48.148;-1.554;2022-11-20T11:30:28;100837.25;;;11.80;99.44
46464;BME280;32161;48.148;-1.554;2022-11-20T11:33:06;100831.81;;;11.80;98.91
46464;BME280;32161;48.148;-1.554;2022-11-20T11:35:44;100824.03;;;11.95;98.41
46464;BME280;32161;48.148;-1.554;2022-11-20T11:38:16;100822.47;;;12.00;98.60
46464;BME280;32161;48.148;-1.554;2022-11-20T11:40:44;100831.94;;;12.09;98.32
46464;BME280;32161;48.148;-1.554;2022-11-20T11:43:22;100817.38;;;12.15;99.71
46464;BME280;32161;48.148;-1.554;2022-11-20T11:46:29;100813.78;;;12.26;99.18
46464;BME280;32161;48.148;-1.554;2022-11-20T11:48:59;100806.09;;;12.23;97.62
46464;BME280;32161;48.148;-1.554;2022-11-20T11:51:34;100801.22;;;12.25;96.26
46464;BME280;32161;48.148;-1.554;2022-11-20T11:54:15;100792.00;;;12.26;96.18
46464;BME280;32161;48.148;-1.554;2022-11-20T11:56:45;100798.28;;;12.27;96.07
46464;BME280;32161;48.148;-1.554;2022-11-20T11:59:18;100800.16;;;12.26;95.40
46464;BME280;32161;48.148;-1.554;2022-11-20T12:01:55;100799.81;;;12.23;95.48
46464;BME280;32161;48.148;-1.554;2022-11-20T12:04:43;100820.91;;;12.15;92.59
46464;BME280;32161;48.148;-1.554;2022-11-20T12:07:20;100810.00;;;12.15;91.58
46464;BME280;32161;48.148;-1.554;2022-11-20T12:09:53;100822.22;;;12.13;90.80
46464;BME280;32161;48.148;-1.554;2022-11-20T12:12:28;100821.50;;;12.06;90.07
46464;BME280;32161;48.148;-1.554;2022-11-20T12:14:58;100833.84;;;11.96;90.55
46464;BME280;32161;48.148;-1.554;2022-11-20T12:17:28;100836.31;;;11.86;91.30
46464;BME280;32161;48.148;-1.554;2022-11-20T12:19:55;100829.09;;;11.92;90.23
46464;BME280;32161;48.148;-1.554;2022-11-20T12:22:31;100830.84;;;11.74;87.95
46464;BME280;32161;48.148;-1.554;2022-11-20T12:25:09;100825.41;;;11.86;88.88
46464;BME280;32161;48.148;-1.554;2022-11-20T12:28:08;100819.75;;;12.00;87.65
46464;BME280;32161;48.148;-1.554;2022-11-20T12:30:46;100824.94;;;11.89;88.30
46464;BME280;32161;48.148;-1.554;2022-11-20T12:33:47;100841.19;;;11.84;89.85
46464;BME280;32161;48.148;-1.554;2022-11-20T12:36:28;100838.53;;;11.66;89.78
46464;BME280;32161;48.148;-1.554;2022-11-20T12:39:34;100842.00;;;11.85;90.38
46464;BME280;32161;48.148;-1.554;2022-11-20T12:42:44;100845.19;;;11.93;87.61
46464;BME280;32161;48.148;-1.554;2022-11-20T12:46:08;100856.56;;;11.90;88.03
46464;BME280;32161;48.148;-1.554;2022-11-20T12:49:05;100853.84;;;11.90;88.60
46464;BME280;32161;48.148;-1.554;2022-11-20T12:51:56;100863.81;;;11.96;89.07
46464;BME280;32161;48.148;-1.554;2022-11-20T12:55:21;100849.34;;;11.96;88.11
46464;BME280;32161;48.148;-1.554;2022-11-20T12:57:58;100855.03;;;12.06;86.99
46464;BME280;32161;48.148;-1.554;2022-11-20T13:00:30;100852.44;;;12.00;87.66
46464;BME280;32161;48.148;-1.554;2022-11-20T13:03:14;100851.13;;;12.02;88.38
46464;BME280;32161;48.148;-1.554;2022-11-20T13:05:59;100854.34;;;12.11;87.58